Date,TemperatureHighF,TemperatureAvgF,TemperatureLowF,DewpointHighF,DewpointAvgF,DewpointLowF,HumidityHigh,HumidityAvg,HumidityLow,PressureMaxIn,PressureMinIn,WindSpeedMaxMPH,WindSpeedAvgMPH,GustSpeedMaxMPH,PrecipitationSumIn
2013-1-1,57.7,41.1,30.5,38.3,31.5,25.8,96,73,30,30.31,30.21,13,1,19,0.00
2013-1-2,57.2,39.1,27.1,39.9,32.4,25.1,94,79,50,30.27,30.15,10,1,10,0.01
2013-1-3,56.4,39.9,28.0,40.9,33.5,26.0,94,79,51,30.30,30.19,10,1,11,0.00
2013-1-4,58.2,42.2,31.7,42.7,36.3,30.0,95,81,54,30.32,30.19,8,1,11,0.00
2013-1-5,52.1,42.3,31.8,45.7,39.5,29.8,94,90,75,30.28,30.07,10,1,15,0.35
2013-1-6,55.7,46.3,37.1,45.1,42.3,35.4,95,86,63,30.21,30.07,13,1,15,0.02
2013-1-7,62.7,46.4,35.1,49.7,41.9,33.8,96,86,60,30.27,30.15,11,1,11,0.01
2013-1-8,62.0,46.7,36.5,50.1,43.0,35.2,96,88,64,30.25,30.13,6,1,10,0.00
2013-1-9,51.7,43.2,32.5,48.7,40.8,31.0,96,92,75,30.17,29.98,15,1,25,0.04
2013-1-10,51.2,39.9,29.4,37.0,32.0,28.1,96,76,45,30.22,30.09,23,3,27,0.01
2013-1-11,53.7,39.6,30.9,40.4,33.6,28.0,93,80,54,30.27,30.12,15,1,21,0.00
2013-1-12,51.8,38.8,29.6,33.7,29.6,24.7,94,72,37,30.27,30.14,11,1,11,0.00
2013-1-13,51.4,37.2,24.0,34.4,25.9,10.0,92,68,23,30.29,30.19,21,1,27,0.00
2013-1-14,56.4,41.8,28.4,32.9,23.1,9.8,85,51,23,30.41,30.25,15,1,23,0.00
2013-1-15,55.2,38.9,27.9,36.7,31.2,25.4,92,75,46,30.50,30.41,10,1,10,0.00
2013-1-16,58.8,40.6,28.8,39.2,32.5,26.7,93,76,40,30.47,30.28,8,1,10,0.00
2013-1-17,62.2,41.5,26.9,42.8,34.5,24.9,94,78,43,30.30,30.16,8,1,8,0.01
2013-1-18,63.9,42.6,27.5,45.1,35.3,25.6,94,78,46,30.25,30.14,10,1,10,0.00
2013-1-19,64.1,42.9,28.1,43.4,34.8,26.0,94,75,44,30.27,30.16,11,1,11,0.01
2013-1-20,63.9,43.4,27.2,42.3,33.9,24.9,93,72,40,30.25,30.13,8,1,13,0.00
2013-1-21,64.6,43.3,28.1,44.7,35.1,26.1,92,75,43,30.19,30.09,11,1,15,0.00
2013-1-22,64.3,45.5,30.7,44.5,37.1,28.4,93,74,45,30.13,29.99,8,1,10,0.01
2013-1-23,52.7,48.9,45.5,48.4,45.0,40.3,96,87,74,30.10,29.96,17,1,19,0.44
2013-1-24,59.8,52.2,48.3,53.7,49.8,47.2,96,92,79,30.19,30.08,8,0,10,0.00
2013-1-25,63.0,54.2,47.3,55.2,50.8,45.9,96,89,72,30.20,30.04,11,1,11,0.00
2013-1-26,59.2,49.3,37.1,47.6,41.3,33.8,97,77,44,30.08,29.97,23,3,27,0.01
2013-1-27,57.0,43.7,31.9,37.7,34.3,30.4,94,72,37,30.19,30.07,17,2,21,0.00
2013-1-28,58.9,46.3,34.5,39.9,37.3,32.2,92,73,47,30.30,30.18,21,2,25,0.00
2013-1-29,62.8,49.3,36.8,43.4,39.2,33.9,90,70,41,30.37,30.26,17,2,17,0.00
2013-1-30,67.9,49.5,36.9,48.5,41.1,34.8,94,76,40,30.35,30.25,11,1,11,0.00
2013-1-31,67.3,48.5,34.0,49.5,41.4,32.1,95,79,49,30.31,30.18,11,1,11,0.00
2013-2-1,68.0,49.6,34.5,50.6,42.2,33.0,95,78,51,30.23,30.11,10,1,13,0.01
2013-2-2,59.4,46.6,39.7,50.2,43.2,38.1,96,88,71,30.32,30.22,10,1,13,0.00
2013-2-3,61.5,48.2,38.7,49.3,43.8,37.1,96,86,61,30.26,30.14,13,1,13,0.01
2013-2-4,56.5,45.1,38.4,49.2,42.5,37.0,96,91,74,30.19,30.07,13,1,17,0.01
2013-2-5,60.4,49.4,39.9,49.0,44.1,37.5,94,83,60,30.17,30.05,19,2,23,0.00
2013-2-6,60.7,45.3,34.1,45.0,38.6,32.0,94,79,49,30.22,30.11,11,2,21,0.01
2013-2-7,56.1,46.5,37.2,46.0,39.7,33.1,95,79,44,30.17,30.00,21,2,25,0.21
2013-2-8,58.7,44.7,32.6,39.1,35.1,30.0,96,73,34,30.03,29.94,21,2,25,0.00
2013-2-9,62.9,48.8,34.4,35.8,31.6,25.4,86,54,25,30.11,30.02,15,2,19,0.00
2013-2-10,64.2,43.9,30.3,46.4,34.7,27.5,91,72,36,30.14,30.01,15,1,21,0.00
2013-2-11,68.7,48.3,34.1,39.8,34.6,29.0,89,64,24,30.24,30.10,15,2,19,0.00
2013-2-12,63.2,45.2,31.3,47.5,38.8,29.2,93,80,49,30.37,30.24,10,1,13,0.00
2013-2-13,66.5,46.7,33.3,46.5,39.1,31.3,94,77,45,30.35,30.21,13,1,19,0.00
2013-2-14,71.0,50.6,35.9,50.2,41.6,34.0,94,74,44,30.27,30.15,15,2,17,0.00
2013-2-15,73.2,52.5,35.8,48.8,41.8,33.7,93,70,38,30.28,30.20,11,1,15,0.01
2013-2-16,71.6,50.8,37.5,48.6,41.7,35.6,94,75,34,30.26,30.06,13,1,15,0.00
2013-2-17,64.7,46.5,32.9,45.9,38.3,31.4,96,76,43,30.07,29.97,13,1,15,0.00
2013-2-18,55.3,44.0,34.4,43.3,38.1,31.7,92,80,62,30.04,29.92,17,2,19,0.00
2013-2-19,49.9,41.9,32.8,43.0,35.9,30.1,94,80,51,29.97,29.74,21,2,30,0.20
2013-2-20,60.4,44.5,29.6,37.2,33.2,27.6,93,68,34,30.07,29.87,21,3,23,0.00
2013-2-21,63.5,48.4,33.4,38.1,34.4,26.6,89,63,26,30.18,30.07,15,2,21,0.00
2013-2-22,64.4,48.9,35.5,45.8,38.9,32.4,89,71,35,30.26,30.16,15,2,19,0.00
2013-2-23,60.4,49.3,39.2,43.2,34.7,27.6,93,61,30,30.28,30.16,21,3,25,0.00
2013-2-24,69.0,48.3,31.4,35.9,31.1,18.4,87,57,15,30.28,30.15,17,2,23,0.00
2013-2-25,70.0,49.0,33.9,44.2,36.3,17.8,90,67,14,30.28,30.15,21,2,21,0.00
2013-2-26,71.8,49.0,32.1,39.8,33.9,24.3,91,62,18,30.23,30.13,15,2,19,0.00
2013-2-27,69.9,50.5,32.5,45.0,37.3,29.4,91,65,28,30.37,30.22,15,1,19,0.00
2013-2-28,70.3,55.1,43.7,54.6,48.0,41.5,94,78,54,30.45,30.36,19,2,21,0.00
2013-3-1,75.7,55.8,41.7,53.1,47.0,40.1,95,75,44,30.44,30.24,11,2,15,0.00
2013-3-2,71.3,56.4,45.1,54.9,48.4,42.8,93,76,52,30.25,30.05,13,1,15,0.00
2013-3-3,66.3,53.4,46.2,51.7,47.3,43.7,91,81,56,30.10,30.01,19,2,23,0.00
2013-3-4,57.9,47.3,38.4,47.7,43.1,36.1,94,86,67,30.16,30.06,15,1,17,0.00
2013-3-5,54.9,46.7,35.9,46.7,41.1,33.8,94,82,66,30.08,29.79,25,3,38,0.23
2013-3-6,57.5,49.0,39.9,47.9,41.7,36.7,92,77,54,30.06,29.80,28,3,32,0.04
2013-3-7,56.9,46.0,36.1,42.6,37.4,33.9,94,75,44,30.01,29.88,15,1,21,0.00
2013-3-8,65.9,49.0,35.4,44.7,37.6,33.0,92,69,30,30.05,29.84,17,2,21,0.00
2013-3-9,72.0,51.8,36.2,46.0,39.5,33.7,92,67,25,30.32,30.05,23,2,25,0.00
2013-3-10,71.0,51.5,36.4,46.1,39.9,34.0,92,69,30,30.34,30.24,15,2,19,0.00
2013-3-11,73.4,51.7,35.0,48.6,41.4,32.9,94,72,32,30.27,30.10,13,1,17,0.00
2013-3-12,75.0,54.0,39.3,57.0,45.9,37.7,95,77,47,30.16,30.07,17,2,19,0.00
2013-3-13,80.3,56.8,40.5,57.9,47.7,38.8,95,75,38,30.17,30.05,13,1,15,0.01
2013-3-14,71.5,55.3,43.8,56.2,47.8,41.9,95,78,52,30.17,30.08,13,1,17,0.00
2013-3-15,75.4,55.4,42.2,55.4,46.8,40.0,93,75,40,30.14,30.02,13,1,23,0.00
2013-3-16,75.9,57.8,40.6,52.3,42.7,31.8,95,63,20,30.12,30.00,23,3,28,0.00
2013-3-17,71.8,54.9,40.7,47.3,41.3,29.1,88,63,22,30.14,30.03,17,2,21,0.00
2013-3-18,69.4,52.4,38.5,47.1,42.3,35.8,92,71,42,30.12,30.01,13,2,17,0.00
2013-3-19,62.9,51.9,43.7,48.7,43.5,40.0,91,75,47,30.13,30.06,11,1,11,0.09
2013-3-20,59.8,52.2,47.1,55.1,49.6,44.1,95,91,81,30.14,30.06,15,1,19,0.43
2013-3-21,67.7,52.1,37.1,46.9,41.4,35.5,95,70,39,30.13,30.00,17,2,21,0.00
2013-3-22,69.5,60.8,45.0,40.6,35.1,26.4,74,41,21,30.12,30.02,15,3,17,0.00
2013-3-23,70.8,52.0,36.3,44.3,37.5,31.5,89,62,24,30.15,30.03,13,2,17,0.00
2013-3-24,71.5,52.8,39.1,49.9,42.6,36.1,91,71,40,30.08,29.96,17,2,21,0.00
2013-3-25,60.5,47.1,38.0,47.0,42.1,36.2,95,84,59,30.03,29.94,21,2,25,0.00
2013-3-26,66.0,51.0,39.7,50.0,44.0,38.4,96,79,52,30.00,29.94,17,2,21,0.01
2013-3-27,64.1,52.5,43.3,52.8,47.4,40.6,92,83,62,30.02,29.95,11,2,15,0.00
2013-3-28,65.0,54.9,46.7,56.4,50.4,44.7,94,85,69,30.09,30.01,11,1,13,0.07
2013-3-29,79.3,58.6,47.6,59.0,51.3,46.2,96,79,39,30.10,30.00,23,2,27,0.01
2013-3-30,69.1,56.3,50.4,56.6,51.3,48.2,94,84,61,30.08,29.99,15,1,19,0.11
2013-3-31,64.2,55.9,51.0,56.1,53.0,49.2,95,90,66,30.07,29.99,11,1,15,0.50
2013-4-1,63.0,55.0,48.0,56.2,51.5,46.4,96,88,70,30.16,30.05,11,1,15,0.07
2013-4-2,67.2,52.8,43.6,56.7,48.6,42.2,96,87,66,30.19,30.09,15,2,25,0.01
2013-4-3,76.3,55.2,46.0,59.3,49.5,44.7,96,83,45,30.15,29.98,13,2,25,0.00
2013-4-4,59.7,53.8,48.5,57.1,52.1,46.6,96,94,89,30.12,29.98,11,1,15,1.01
2013-4-5,64.8,56.6,52.1,54.8,52.3,49.6,96,86,64,30.19,30.11,17,2,23,0.03
2013-4-6,70.0,56.8,52.1,56.8,51.9,48.9,94,84,58,30.19,30.12,17,2,23,0.00
2013-4-7,65.3,55.5,49.1,55.8,49.8,44.8,95,82,60,30.18,29.81,17,3,28,0.08
2013-4-8,70.3,55.8,45.2,45.6,38.0,31.5,88,55,25,30.06,29.81,27,5,32,0.00
2013-4-9,80.3,60.7,40.0,46.6,36.6,9.6,90,51,8,30.13,30.02,19,3,25,0.00
2013-4-10,85.3,67.1,48.5,59.8,48.4,42.8,84,55,24,30.17,30.01,21,3,25,0.00
2013-4-11,77.7,62.1,47.0,53.4,46.9,42.7,87,60,30,30.06,29.82,13,2,21,0.00
2013-4-12,74.8,57.4,43.4,54.5,46.3,40.4,91,69,40,29.91,29.81,15,1,19,0.00
2013-4-13,76.8,59.1,43.6,52.9,43.2,37.3,94,60,33,29.91,29.78,23,3,25,0.00
2013-4-14,73.9,56.9,43.0,45.0,38.5,25.0,84,54,22,29.93,29.83,34,4,34,0.00
2013-4-15,63.0,50.8,38.7,43.3,35.6,29.8,94,61,30,29.98,29.85,28,5,36,0.00
2013-4-16,70.0,54.4,34.0,37.8,31.5,15.6,90,48,13,30.18,29.97,25,3,28,0.00
2013-4-17,73.3,57.1,39.0,42.2,30.3,10.5,83,45,9,30.28,30.16,23,3,34,0.00
2013-4-18,79.6,59.9,40.6,45.8,40.4,35.8,87,54,23,30.26,30.17,15,2,19,0.00
2013-4-19,80.4,62.9,44.8,55.5,46.8,40.0,89,59,29,30.23,30.05,27,2,28,0.00
2013-4-20,82.9,63.0,46.7,52.3,45.4,39.9,85,57,22,30.11,29.96,23,2,23,0.00
2013-4-21,86.1,65.7,45.9,57.0,46.8,38.1,90,57,23,30.03,29.90,15,1,17,0.00
2013-4-22,91.5,77.8,59.8,55.4,48.7,39.8,66,38,17,29.94,29.83,15,2,21,0.00
2013-4-23,85.6,67.2,46.4,49.5,32.6,10.9,90,37,8,29.91,29.84,23,3,34,0.00
2013-4-24,64.7,53.2,46.2,50.1,46.1,43.3,91,78,56,29.97,29.84,15,2,19,0.00
2013-4-25,67.3,55.1,47.2,52.1,47.0,43.8,89,75,55,30.12,29.97,15,1,19,0.00
2013-4-26,70.0,54.5,46.7,55.2,48.1,43.8,91,80,57,30.24,30.12,15,2,21,0.00
2013-4-27,75.3,56.0,46.0,57.5,48.6,44.0,94,79,49,30.23,30.07,13,1,21,0.00
2013-4-28,85.8,63.8,41.2,58.3,49.8,39.8,96,66,33,30.07,29.86,10,1,13,0.00
2013-4-29,90.8,71.8,53.0,58.9,51.2,46.9,87,53,28,29.89,29.74,19,2,25,0.00
2013-4-30,90.3,71.1,51.5,49.1,34.1,-24.4,81,36,1,29.86,29.76,25,3,28,0.00
2013-5-1,89.0,73.3,54.6,42.2,18.7,1.0,57,17,4,30.07,29.84,27,4,32,0.00
2013-5-2,94.0,69.6,46.0,47.7,37.6,20.9,81,39,9,30.14,30.05,10,1,15,0.00
2013-5-3,92.8,68.0,46.8,53.9,41.6,36.2,76,43,17,30.07,29.78,17,1,17,0.00
2013-5-4,90.5,65.3,48.6,52.2,47.6,42.4,86,58,23,29.79,29.56,23,2,23,0.00
2013-5-5,66.6,58.7,54.9,51.8,49.3,48.1,82,71,56,29.82,29.62,10,1,19,0.00
2013-5-6,70.4,59.7,51.2,53.1,50.4,47.7,89,72,49,29.97,29.81,10,0,13,0.00
2013-5-7,75.8,61.4,51.4,55.9,52.0,48.8,92,73,45,30.04,29.96,15,1,19,0.00
2013-5-8,66.2,55.3,49.4,53.9,49.9,46.3,93,83,63,30.14,30.03,15,1,19,0.00
2013-5-9,69.3,57.2,48.4,55.4,49.9,46.0,93,78,57,30.17,30.08,19,2,23,0.00
2013-5-10,76.1,59.5,49.8,58.8,51.2,47.0,92,76,53,30.18,30.08,17,1,21,0.00
2013-5-11,86.4,61.9,47.7,61.3,51.6,45.8,95,73,39,30.15,30.04,11,1,17,0.00
2013-5-12,81.3,62.7,45.9,60.7,51.8,44.6,96,71,41,30.14,30.00,15,1,19,0.00
2013-5-13,84.7,65.3,49.4,61.1,52.2,47.1,94,67,42,30.07,29.92,13,1,17,0.00
2013-5-14,84.5,65.8,49.4,54.4,49.4,44.9,90,60,33,29.97,29.85,13,1,17,0.00
2013-5-15,79.9,61.1,44.7,51.4,46.7,42.0,93,63,32,30.02,29.95,11,1,17,0.00
2013-5-16,76.0,62.2,51.1,55.0,49.3,45.9,84,65,39,30.01,29.92,17,1,23,0.00
2013-5-17,72.3,58.2,44.3,49.4,45.5,41.8,93,66,37,30.06,29.96,25,2,25,0.00
2013-5-18,82.4,63.4,44.3,50.4,45.8,41.5,91,58,27,30.12,30.03,27,3,28,0.00
2013-5-19,85.7,67.0,48.7,49.8,45.3,37.5,84,51,19,30.12,29.96,17,2,23,0.00
2013-5-20,89.7,67.6,50.2,54.4,46.2,34.6,88,54,15,29.99,29.88,15,1,19,0.00
2013-5-21,75.1,60.5,48.3,47.7,42.9,35.5,90,57,25,29.99,29.89,25,5,36,0.00
2013-5-22,72.8,57.9,42.6,41.2,34.6,27.5,69,44,20,30.04,29.88,19,4,28,0.00
2013-5-23,74.5,59.3,42.2,44.9,40.7,36.9,85,53,28,30.00,29.91,13,2,25,0.00
2013-5-24,75.7,59.4,44.1,45.9,42.4,37.2,83,57,26,29.99,29.89,13,2,19,0.00
2013-5-25,74.5,59.6,44.0,48.5,44.8,40.7,90,62,33,30.02,29.94,15,1,19,0.00
2013-5-26,76.3,61.3,48.6,54.8,49.1,46.0,94,67,39,30.10,30.02,21,2,23,0.00
2013-5-27,65.7,56.5,47.4,57.6,51.2,44.3,94,83,66,30.10,29.99,13,1,17,0.23
2013-5-28,77.2,62.5,55.1,58.6,54.3,49.7,95,77,48,30.00,29.91,15,1,21,0.04
2013-5-29,78.7,65.5,55.2,56.9,51.4,42.4,84,63,29,29.95,29.85,15,2,21,0.00
2013-5-30,83.1,65.4,47.7,49.5,45.2,38.9,89,53,24,29.98,29.89,15,2,19,0.00
2013-5-31,90.2,69.8,50.5,52.6,47.8,43.8,82,51,21,30.00,29.88,11,1,15,0.00
2013-6-1,94.1,74.4,53.6,55.8,48.8,42.7,81,45,22,29.92,29.75,17,1,21,0.00
2013-6-2,85.6,69.4,53.6,54.7,49.5,45.2,79,52,30,29.76,29.62,11,1,15,0.00
2013-6-3,71.2,59.7,49.1,54.2,50.6,46.5,92,73,53,29.88,29.69,17,2,21,0.00
2013-6-4,67.8,58.3,53.8,54.3,51.1,49.8,89,78,59,29.98,29.86,11,1,15,0.00
2013-6-5,73.3,59.6,52.5,55.1,51.1,49.0,89,75,50,30.00,29.92,11,2,17,0.00
2013-6-6,77.8,59.5,50.9,56.8,51.2,48.1,92,76,46,29.96,29.84,13,1,17,0.00
2013-6-7,92.6,68.2,51.3,61.1,53.7,48.9,93,65,31,29.89,29.69,10,1,11,0.00
2013-6-8,91.8,69.0,55.9,61.5,54.6,51.3,87,64,34,29.83,29.68,13,1,15,0.00
2013-6-9,66.9,59.3,55.9,55.4,53.6,52.1,92,82,65,29.89,29.83,15,2,15,0.00
2013-6-10,62.3,58.2,55.1,57.9,54.0,51.0,95,86,73,29.96,29.79,10,1,17,0.07
2013-6-11,78.1,64.3,51.8,59.0,53.2,48.3,93,69,44,29.98,29.86,11,1,17,0.00
2013-6-12,85.7,66.1,48.0,50.5,43.9,17.7,92,52,8,29.97,29.88,23,3,27,0.00
2013-6-13,85.6,67.7,48.3,47.7,43.4,38.3,79,45,21,30.07,29.97,19,2,21,0.00
2013-6-14,87.3,68.0,51.1,51.1,46.0,29.6,84,51,13,29.99,29.79,13,2,19,0.00
2013-6-15,82.3,61.9,47.1,53.6,48.9,43.6,91,66,36,29.97,29.82,13,1,19,0.00
2013-6-16,86.8,66.1,46.4,55.0,48.5,44.0,93,59,29,30.06,29.97,21,2,27,0.00
2013-6-17,82.6,64.9,47.7,55.6,50.5,44.8,91,63,35,30.07,29.98,19,1,23,0.00
2013-6-18,76.2,63.0,49.3,51.7,47.9,41.2,94,61,31,30.01,29.92,32,3,32,0.00
2013-6-19,79.8,64.6,47.7,48.9,45.9,38.7,88,54,26,30.04,29.95,15,2,25,0.00
2013-6-20,82.9,66.8,49.9,48.6,45.2,37.0,82,50,23,30.00,29.88,13,2,25,0.00
2013-6-21,85.5,67.9,49.0,51.5,46.9,39.3,89,53,21,29.96,29.86,13,1,17,0.00
2013-6-22,87.8,71.5,54.3,51.3,47.7,40.3,78,47,22,29.91,29.79,13,2,25,0.00
2013-6-23,71.7,62.5,55.6,59.8,55.8,51.0,89,79,65,29.85,29.80,19,1,19,0.00
2013-6-24,63.7,59.8,57.0,58.7,56.3,53.8,94,88,79,29.89,29.78,8,0,10,0.18
2013-6-25,64.7,62.0,59.1,63.2,60.5,57.7,96,95,92,29.98,29.86,10,1,11,1.28
2013-6-26,80.1,68.2,60.9,65.8,61.7,58.1,97,82,52,30.05,29.96,11,1,13,0.04
2013-6-27,89.7,71.1,57.1,63.8,58.9,53.0,96,70,31,30.07,29.98,10,1,13,0.01
2013-6-28,95.1,76.9,58.1,65.8,60.1,55.7,95,61,30,30.02,29.85,11,1,13,0.00
2013-6-29,100.0,80.9,60.3,63.1,58.8,54.2,89,52,24,29.89,29.74,8,1,13,0.00
2013-6-30,93.4,75.3,58.3,61.1,57.3,53.7,87,58,32,29.83,29.71,11,1,15,0.00
2013-7-1,96.9,74.6,57.1,64.2,57.7,53.7,91,60,29,29.82,29.76,10,1,13,0.00
2013-7-2,93.0,72.4,60.3,63.7,58.2,55.8,88,64,35,29.91,29.79,11,1,15,0.00
2013-7-3,89.6,70.8,58.7,64.2,58.3,56.0,92,68,38,29.91,29.75,11,1,17,0.00
2013-7-4,95.1,79.0,63.7,63.9,55.8,40.0,80,50,17,29.80,29.62,15,2,25,0.00
2013-7-5,85.2,68.8,54.2,57.9,52.7,47.4,86,59,37,29.73,29.65,15,1,21,0.00
2013-7-6,79.7,63.9,53.4,59.2,53.8,50.6,92,72,47,29.79,29.72,13,1,17,0.00
2013-7-7,80.2,62.9,54.9,58.8,54.2,51.8,91,76,45,29.86,29.78,13,1,13,0.00
2013-7-8,81.6,62.7,53.0,59.9,53.8,50.5,92,75,44,29.97,29.86,10,1,15,0.00
2013-7-9,90.2,66.5,50.6,57.9,52.1,48.6,94,66,26,30.03,29.91,13,1,17,0.00
2013-7-10,78.0,60.2,50.6,56.7,50.9,48.3,93,74,42,29.99,29.89,13,1,15,0.00
2013-7-11,74.7,58.2,49.7,56.0,50.7,47.5,93,78,47,29.95,29.86,17,2,21,0.00
2013-7-12,77.7,60.1,51.2,57.8,51.4,48.1,90,75,47,29.95,29.85,11,1,17,0.00
2013-7-13,51.2,50.3,49.3,48.3,47.8,46.7,92,91,90,29.90,29.89,2,0,4,0.00
2013-7-20,58.8,54.8,52.8,50.4,49.7,49.1,88,83,73,29.80,29.75,6,1,10,0.00
2013-7-21,81.9,62.6,51.7,58.9,52.2,48.5,91,72,41,29.90,29.76,11,1,13,0.00
2013-7-22,85.2,64.9,49.8,60.0,54.1,47.8,94,71,38,29.96,29.89,13,1,15,0.00
2013-7-23,77.7,65.8,57.2,59.2,55.2,52.9,86,70,49,29.99,29.93,8,1,11,0.00
2013-7-24,83.2,65.2,53.6,57.8,53.8,51.5,94,70,39,29.99,29.88,15,1,17,0.00
2013-7-25,76.4,61.4,52.6,57.0,52.4,50.2,92,75,47,30.03,29.92,19,2,27,0.00
2013-7-26,77.2,59.9,52.1,58.2,52.6,50.0,94,79,50,30.10,30.00,13,1,15,0.00
2013-7-27,76.2,59.5,52.2,57.5,52.5,49.9,94,80,50,30.03,29.86,11,1,19,0.00
2013-7-28,74.2,58.3,51.4,58.4,51.9,49.2,94,81,53,29.89,29.80,13,1,17,0.00
2013-7-29,73.2,58.9,53.5,56.2,51.9,49.8,89,79,53,30.02,29.84,17,1,21,0.00
2013-7-30,72.7,58.9,52.6,57.1,52.2,49.6,93,80,55,30.11,30.02,11,1,13,0.00
2013-7-31,76.2,61.0,52.4,56.9,52.5,49.0,94,76,49,30.09,29.95,8,1,17,0.00
2013-8-1,78.5,62.6,47.0,54.9,50.7,45.0,94,69,39,30.05,29.92,15,1,19,0.00
2013-8-2,83.9,63.9,46.7,55.9,50.3,44.8,95,66,35,29.97,29.85,15,1,21,0.00
2013-8-3,79.2,60.2,49.2,57.0,51.5,47.1,94,76,45,29.97,29.90,15,1,15,0.00
2013-8-4,74.1,58.3,51.5,57.1,51.4,49.3,93,80,52,30.00,29.94,13,2,19,0.00
2013-8-5,74.3,58.9,51.3,57.2,51.2,48.8,92,78,52,30.03,29.93,11,1,19,0.00
2013-8-6,73.0,59.2,51.3,56.2,51.8,48.8,93,78,51,30.05,29.98,15,1,15,0.00
2013-8-7,69.9,60.7,54.3,56.9,53.7,51.2,90,79,61,30.10,30.03,11,1,19,0.00
2013-8-8,74.6,61.1,53.5,58.2,53.7,50.6,93,78,55,30.03,29.93,19,2,21,0.00
2013-8-9,73.7,59.4,52.5,57.5,52.8,50.3,93,80,55,29.99,29.91,11,2,17,0.00
2013-8-10,75.4,61.6,55.4,58.9,54.4,52.4,90,79,52,30.04,29.98,11,1,17,0.00
2013-8-11,78.3,62.0,53.7,59.1,54.1,51.1,94,78,48,30.02,29.91,21,2,21,0.00
2013-8-12,81.6,61.8,52.3,58.2,52.7,50.0,94,75,41,29.99,29.92,17,1,17,0.00
2013-8-13,87.1,66.2,52.4,57.8,52.8,49.6,94,67,30,29.99,29.87,11,1,15,0.00
2013-8-14,88.7,67.2,48.5,58.4,52.6,46.3,93,65,28,29.96,29.84,13,1,17,0.00
2013-8-15,87.3,68.4,53.6,64.2,58.4,51.6,95,73,41,29.94,29.88,15,1,21,0.00
2013-8-16,87.6,68.0,55.6,63.7,57.5,53.2,96,73,39,29.97,29.90,17,1,19,0.00
2013-8-17,86.9,68.5,52.4,59.8,55.3,50.7,96,68,36,29.97,29.80,11,1,17,0.00
2013-8-18,90.6,71.6,53.5,62.9,56.3,51.2,94,63,34,29.87,29.74,15,1,15,0.00
2013-8-19,85.8,69.5,59.2,61.4,56.6,52.3,89,66,33,29.88,29.78,10,1,17,0.00
2013-8-20,82.3,65.8,59.6,62.2,58.6,56.8,93,79,45,29.90,29.81,13,1,15,0.00
2013-8-21,78.5,62.3,53.2,59.3,55.4,50.3,90,80,49,29.95,29.86,10,1,13,0.00
2013-8-22,75.9,61.5,53.0,58.6,54.1,50.2,93,79,52,29.98,29.89,15,1,17,0.00
2013-8-23,80.3,64.1,54.9,59.6,54.7,51.1,90,74,47,29.92,29.77,13,1,23,0.00
2013-8-24,81.4,63.7,49.9,59.1,54.2,48.1,95,74,45,29.87,29.81,23,2,27,0.00
2013-8-25,79.0,65.6,57.0,62.6,58.1,54.3,93,78,55,29.93,29.86,13,1,17,0.00
2013-8-26,82.5,66.4,56.3,59.9,56.1,52.0,94,72,40,30.00,29.87,11,1,15,0.01
2013-8-27,86.7,66.3,52.0,58.5,53.9,48.9,90,68,34,29.89,29.79,17,1,23,0.00
2013-8-28,83.7,66.0,54.9,63.2,58.1,52.9,95,78,49,29.93,29.84,19,1,19,0.00
2013-8-29,85.1,67.9,59.7,65.0,60.0,57.2,95,78,48,30.05,29.93,15,1,19,0.00
2013-8-30,91.6,71.6,56.5,62.6,58.1,54.2,94,67,32,30.03,29.88,8,1,11,0.00
2013-8-31,84.9,67.7,53.8,62.8,56.0,50.5,89,69,41,29.96,29.86,9,1,11,0.00
2013-9-1,81.4,65.8,55.3,61.4,57.3,52.7,92,76,45,29.94,29.85,10,0,10,0.00
2013-9-2,83.6,69.0,57.7,65.7,59.7,54.5,91,74,48,29.94,29.86,6,1,10,0.00
2013-9-3,83.2,66.9,53.6,59.2,55.1,50.5,90,69,36,29.97,29.89,7,1,11,0.00
2013-9-4,84.2,67.4,53.0,61.5,55.6,49.8,90,69,39,30.01,29.89,6,0,11,0.00
2013-9-5,86.3,68.9,53.1,59.6,53.6,49.7,89,62,32,29.98,29.90,8,1,10,0.00
2013-9-6,93.0,72.0,53.7,60.6,51.1,46.2,84,52,23,29.97,29.81,7,1,9,0.00
2013-9-7,96.1,72.9,54.1,57.8,50.5,41.6,81,50,16,29.86,29.78,9,0,10,0.00
2013-9-8,88.9,67.6,52.6,61.3,53.6,49.4,95,66,27,29.87,29.74,5,0,9,0.00
2013-9-9,92.8,66.5,51.9,60.8,53.6,48.4,91,68,29,29.81,29.68,5,0,9,0.00
2013-9-10,75.9,63.2,56.4,62.9,57.8,53.5,93,83,60,29.90,29.72,10,1,11,0.00
2013-9-11,71.0,64.6,61.6,61.2,59.0,57.9,92,83,68,29.99,29.89,6,0,8,0.00
2013-9-12,80.0,65.1,57.5,64.5,58.5,54.9,91,80,55,29.98,29.86,6,1,10,0.00
2013-9-13,80.7,63.6,54.9,62.9,55.8,52.6,94,78,47,29.90,29.73,9,1,10,0.00
2013-9-14,79.1,62.4,54.6,62.2,55.0,51.4,94,79,50,29.82,29.70,9,1,10,0.00
2013-9-15,80.7,64.2,52.7,61.6,55.7,50.0,94,76,46,29.85,29.76,8,1,11,0.00
2013-9-16,84.8,65.1,53.1,61.7,55.1,50.5,95,73,38,29.89,29.74,6,0,9,0.00
2013-9-17,81.3,65.8,50.5,57.2,51.3,47.9,92,63,34,29.88,29.79,11,2,16,0.00
2013-9-18,86.1,67.3,52.0,54.6,48.2,43.0,84,55,25,29.90,29.78,7,1,9,0.00
2013-9-19,89.5,65.6,49.3,54.5,47.2,38.1,84,57,21,29.85,29.73,8,1,8,0.00
2013-9-20,79.5,61.8,46.5,62.2,53.6,42.8,90,76,49,29.83,29.77,10,1,13,0.00
2013-9-21,71.4,62.2,53.8,64.0,56.7,50.8,95,83,54,29.89,29.77,12,1,17,0.57
2013-9-22,77.1,61.8,48.3,56.6,51.7,46.0,93,72,38,30.00,29.88,7,1,9,0.00
2013-9-23,83.8,65.9,51.9,62.2,54.9,48.7,89,70,40,30.01,29.89,8,1,8,0.00
2013-9-24,80.0,64.8,53.6,55.4,51.3,47.5,91,65,33,29.97,29.86,9,2,17,0.00
2013-9-25,74.3,60.8,48.0,50.0,44.6,38.9,90,59,30,29.93,29.80,11,2,18,0.00
2013-9-26,78.1,60.6,44.3,47.2,41.3,32.9,84,54,22,30.00,29.84,8,1,9,0.00
2013-9-27,66.7,57.3,50.5,44.0,41.9,38.4,73,58,36,30.06,30.00,2,0,3,0.00
2013-9-28,82.2,62.1,47.0,54.8,45.6,36.6,87,60,22,30.08,29.99,10,1,10,0.00
2013-9-29,74.4,62.5,54.1,63.1,57.5,50.7,93,84,65,30.09,30.03,9,1,12,0.00
2013-9-30,75.4,63.9,53.7,64.6,59.8,47.3,95,87,67,30.05,29.96,5,1,9,0.02
2013-10-1,78.5,60.9,45.7,54.7,47.8,43.5,92,66,32,30.01,29.89,5,1,8,0.00
2013-10-2,78.2,61.9,48.8,53.2,45.4,37.5,87,58,25,30.02,29.91,10,1,13,0.00
2013-10-3,76.7,62.1,43.4,43.0,33.5,17.4,84,43,12,30.09,29.96,16,3,27,0.00
2013-10-4,82.3,70.0,56.6,35.5,26.2,16.7,42,21,9,30.07,30.00,14,3,23,0.00
2013-10-5,86.1,64.1,45.1,45.3,34.4,24.6,68,37,12,30.19,30.07,6,1,7,0.00
2013-10-6,84.8,62.4,42.7,46.2,36.6,27.5,76,43,14,30.12,29.99,4,0,7,0.00
2013-10-7,83.8,61.8,44.0,46.5,40.0,23.7,78,50,14,30.00,29.84,6,0,9,0.00
2013-10-8,78.7,59.4,45.5,50.3,43.3,39.6,83,58,28,29.91,29.71,6,1,7,0.00
2013-10-9,75.0,58.7,44.6,46.1,42.4,36.3,86,58,25,29.76,29.61,7,1,10,0.00
2013-10-10,75.9,57.0,46.7,52.0,44.9,39.9,90,66,34,30.01,29.75,8,1,10,0.00
2013-10-11,70.2,52.3,44.6,51.4,46.2,42.5,95,82,48,30.10,29.98,6,1,8,0.00
2013-10-12,72.4,54.6,40.3,53.1,44.7,38.2,94,72,44,30.02,29.88,8,1,10,0.00
2013-10-13,76.9,57.6,43.0,50.4,43.0,36.2,90,62,26,30.07,29.93,9,1,10,0.00
2013-10-14,80.4,58.5,41.4,47.2,40.2,35.0,87,56,20,30.12,29.99,6,0,8,0.00
2013-10-15,83.3,59.6,40.6,46.0,37.1,27.5,84,50,14,30.07,29.93,5,0,8,0.00
2013-10-16,83.4,59.8,41.2,43.4,36.4,29.0,80,47,14,30.09,30.00,6,0,7,0.00
2013-10-17,82.4,59.6,42.5,45.0,37.3,29.5,78,49,16,30.09,29.95,5,0,8,0.00
2013-10-18,80.0,58.4,41.9,48.5,40.9,36.2,83,57,27,30.06,29.98,5,0,6,0.00
2013-10-19,84.0,58.5,40.1,49.2,42.0,35.7,89,61,19,30.10,29.97,5,0,6,0.00
2013-10-20,80.3,55.3,40.9,51.5,44.2,37.3,93,70,29,30.03,29.90,6,0,7,0.00
2013-10-21,73.2,54.4,45.2,52.8,47.1,43.7,95,79,45,30.02,29.91,5,0,6,0.00
2013-10-22,77.7,54.6,43.9,54.8,47.2,42.6,95,79,40,30.04,29.92,4,0,6,0.00
2013-10-23,74.8,52.8,44.0,52.8,46.8,42.7,95,83,40,29.99,29.89,5,0,7,0.00
2013-10-24,66.7,51.9,45.2,52.7,47.1,42.3,94,85,55,30.11,29.97,8,0,8,0.00
2013-10-25,71.8,51.9,41.5,52.5,44.8,39.3,95,79,47,30.18,30.08,5,0,8,0.00
2013-10-26,80.5,56.4,41.1,53.7,44.3,38.6,92,69,27,30.16,30.01,5,0,5,0.00
2013-10-27,64.5,50.7,43.4,52.2,45.7,41.1,95,84,56,30.03,29.63,7,1,9,0.00
2013-10-28,66.7,51.9,40.3,47.5,42.7,37.5,91,73,40,29.83,29.67,5,0,7,0.00
2013-10-29,66.1,52.1,42.2,50.4,44.4,39.6,92,77,51,30.06,29.83,5,0,6,0.00
2013-10-30,69.0,51.5,39.4,49.8,42.2,37.0,93,73,44,30.16,30.06,6,0,8,0.00
2013-10-31,75.1,54.2,39.8,49.3,42.1,36.5,90,67,34,30.19,30.06,6,0,6,0.00
2013-11-1,78.5,57.2,42.1,50.1,43.1,38.9,89,63,31,30.16,30.01,5,0,7,0.00
2013-11-2,73.4,56.2,41.9,53.1,44.6,38.5,88,67,38,30.03,29.88,8,1,10,0.00
2013-11-3,65.5,49.8,37.3,41.4,35.8,29.1,87,63,28,30.07,29.93,8,1,11,0.00
2013-11-4,73.1,53.2,36.3,38.7,32.1,17.4,87,53,12,30.11,29.94,11,1,14,0.00
2013-11-5,76.4,56.0,39.7,44.0,36.6,33.5,81,52,22,30.22,30.09,5,0,7,0.00
2013-11-6,75.4,57.7,44.0,44.7,39.2,35.1,79,53,27,30.27,30.16,5,0,8,0.00
2013-11-7,75.8,59.9,47.6,49.1,41.4,37.2,76,53,26,30.18,30.06,6,1,7,0.00
2013-11-12,69.8,58.2,48.9,50.0,46.5,43.3,84,67,40,30.27,30.20,4,0,4,0.00
2013-11-13,78.5,56.0,43.2,55.2,48.0,40.7,96,77,42,30.27,30.10,9,0,9,0.00
2013-11-14,65.0,51.9,45.3,54.0,47.6,36.2,97,86,55,30.12,29.90,7,0,7,0.00
2013-11-15,68.8,52.2,39.7,44.8,39.0,35.8,87,63,34,29.90,29.73,8,1,8,0.00
2013-11-16,69.0,51.8,37.7,48.6,41.8,35.0,91,72,42,29.93,29.79,14,1,14,0.00
2013-11-17,63.2,49.2,38.9,51.6,44.3,37.0,94,84,63,30.10,29.93,5,0,5,0.00
2013-11-18,60.1,48.5,38.5,48.9,43.8,36.9,95,84,64,30.19,30.09,7,0,7,0.01
2013-11-19,57.2,54.0,50.2,55.5,52.5,48.0,97,95,90,30.12,29.93,4,0,5,0.66
2013-11-20,59.2,55.7,50.6,57.9,54.7,49.5,98,96,92,29.94,29.84,4,0,6,0.37
2013-11-21,64.8,57.1,50.2,50.1,32.0,13.1,98,49,16,29.99,29.90,26,4,26,0.00
2013-11-22,74.6,64.6,48.1,21.5,10.3,2.5,32,13,7,30.03,29.89,25,4,25,0.00
2013-11-23,67.8,55.8,40.7,37.5,27.0,11.6,68,36,15,30.12,29.95,11,1,11,0.00
2013-11-24,66.1,47.2,34.0,45.7,36.6,29.7,88,69,38,30.28,30.11,9,0,9,0.00
2013-11-25,64.3,48.0,35.3,45.6,40.0,33.2,94,76,48,30.36,30.26,7,0,7,0.00
2013-11-26,64.4,49.0,38.3,45.9,41.1,36.5,94,76,49,30.30,30.06,6,0,6,0.00
2013-11-27,69.5,50.3,37.4,46.7,41.2,35.3,92,73,37,30.06,29.85,5,0,6,0.00
2013-11-28,69.5,51.2,38.9,45.5,41.1,36.6,92,71,39,30.09,29.89,6,0,6,0.00
2013-11-29,69.1,51.0,37.8,47.3,41.9,35.6,93,73,42,30.24,30.09,7,0,7,0.00
2013-11-30,69.0,51.8,41.8,48.4,43.1,38.8,92,75,41,30.30,30.19,4,0,6,0.00
2013-12-1,67.7,47.8,39.1,48.1,42.1,37.2,94,82,48,30.36,30.23,5,0,5,0.00
2013-12-2,66.8,52.0,38.2,52.4,45.5,36.3,94,80,51,30.24,29.96,14,1,14,0.00
2013-12-3,57.5,49.5,35.1,52.0,34.8,28.6,92,59,34,29.98,29.85,9,1,14,0.00
2013-12-4,54.2,40.0,29.7,30.8,27.2,22.1,88,64,31,30.14,29.98,6,1,6,0.00
2013-12-5,51.5,36.4,24.8,31.4,25.0,16.7,84,66,29,30.20,30.12,7,1,7,0.00
2013-12-6,48.2,38.3,25.7,45.7,32.2,22.7,96,80,45,30.24,29.93,16,1,16,0.64
2013-12-7,47.7,38.2,29.3,42.6,30.2,24.0,97,76,42,30.31,29.95,13,1,13,0.00
2013-12-8,48.2,34.8,26.5,29.9,25.2,22.1,92,71,38,30.37,30.26,6,0,6,0.00
2013-12-9,51.7,35.1,23.6,29.7,24.4,20.5,89,68,35,30.47,30.36,8,1,8,0.00
2013-12-10,53.7,37.2,24.9,31.3,26.9,21.8,89,69,37,30.47,30.24,5,0,5,0.00
2013-12-11,58.7,40.3,28.7,36.2,31.0,26.0,90,72,40,30.29,30.21,5,0,5,0.00
2013-12-12,59.3,44.5,29.0,36.3,33.0,26.7,91,67,38,30.33,30.20,6,0,6,0.00
2013-12-13,62.9,43.5,29.9,38.0,33.5,27.5,93,71,37,30.38,30.27,5,0,5,0.01
2013-12-14,64.5,44.3,31.7,42.2,36.0,29.6,93,75,41,30.44,30.33,9,0,9,0.00
2013-12-15,62.4,44.2,30.4,40.4,35.4,28.5,93,74,40,30.41,30.27,5,0,5,0.00
2013-12-16,65.2,52.2,34.8,43.0,39.7,32.5,91,65,42,30.26,30.14,8,0,8,0.00
2013-12-17,64.1,47.0,34.9,43.6,38.4,32.4,92,74,44,30.22,30.05,5,0,5,0.00
2013-12-18,61.7,46.9,37.1,47.5,40.6,34.4,92,80,51,30.05,29.78,7,0,7,0.00
2013-12-19,63.1,50.9,35.7,39.3,28.2,12.9,91,49,19,29.98,29.76,17,2,17,0.00
2013-12-20,67.1,48.2,32.6,32.1,26.5,17.3,73,47,15,30.04,29.95,9,1,9,0.00
2013-12-21,68.1,51.0,39.2,48.8,41.9,32.2,90,73,46,30.11,29.99,9,1,9,0.00
2013-12-22,67.3,48.8,36.2,44.5,40.0,34.1,93,74,40,30.32,30.10,8,1,8,0.00
2013-12-23,67.5,48.5,35.5,44.2,39.3,33.1,93,73,42,30.43,30.31,6,0,6,0.00
2013-12-24,68.8,50.1,37.8,45.7,40.7,35.4,92,73,41,30.37,30.22,6,0,6,0.00
2013-12-25,66.2,46.5,32.7,42.4,37.4,30.6,93,73,39,30.35,30.22,5,0,5,0.00
2013-12-26,67.0,46.4,32.1,42.4,35.6,29.2,90,69,39,30.30,30.17,5,0,5,0.00
2013-12-27,57.6,43.5,33.1,40.2,34.9,29.9,89,73,47,30.27,30.16,4,0,4,0.00
2013-12-28,66.8,45.1,29.7,39.1,33.1,27.2,92,66,33,30.20,30.05,5,0,5,0.00
2013-12-29,66.4,46.4,32.2,35.3,30.9,26.8,82,58,28,30.22,30.10,8,1,8,0.00
2013-12-30,64.1,45.4,31.6,39.2,33.2,27.1,85,65,37,30.29,30.20,7,0,7,0.00
2013-12-31,62.1,45.4,35.3,42.6,35.8,31.1,87,71,41,30.32,30.18,4,0,6,0.00
2014-1-1,66.5,46.0,31.5,41.4,33.9,28.8,91,67,30,30.24,30.15,5,0,5,0.00
2014-1-2,62.4,43.9,35.4,40.0,35.4,31.6,87,73,42,30.22,30.07,5,0,5,0.00